sensor_id;sensor_type;location;lat;lon;timestamp;temperature;humidity
74494;SHT31;62978;51.094;-115.362;2022-09-13T00:01:03;18.42;47.53
74494;SHT31;62978;51.094;-115.362;2022-09-13T00:03:31;18.36;47.30
74494;SHT31;62978;51.094;-115.362;2022-09-13T00:06:20;18.30;47.62
74494;SHT31;62978;51.094;-115.362;2022-09-13T00:08:47;18.20;48.10
74494;SHT31;62978;51.094;-115.362;2022-09-13T00:11:20;18.08;47.80
74494;SHT31;62978;51.094;-115.362;2022-09-13T00:13:51;17.93;47.58
74494;SHT31;62978;51.094;-115.362;2022-09-13T00:16:20;17.84;47.31
74494;SHT31;62978;51.094;-115.362;2022-09-13T00:18:51;17.79;48.28
74494;SHT31;62978;51.094;-115.362;2022-09-13T00:21:21;17.71;48.80
74494;SHT31;62978;51.094;-115.362;2022-09-13T00:23:51;17.66;48.76
74494;SHT31;62978;51.094;-115.362;2022-09-13T00:26:23;17.61;49.41
74494;SHT31;62978;51.094;-115.362;2022-09-13T00:28:54;17.54;49.35
74494;SHT31;62978;51.094;-115.362;2022-09-13T00:31:24;17.46;49.61
74494;SHT31;62978;51.094;-115.362;2022-09-13T00:33:53;17.36;50.18
74494;SHT31;62978;51.094;-115.362;2022-09-13T00:36:23;17.22;50.38
74494;SHT31;62978;51.094;-115.362;2022-09-13T00:38:50;17.16;50.12
74494;SHT31;62978;51.094;-115.362;2022-09-13T00:41:18;17.13;50.09
74494;SHT31;62978;51.094;-115.362;2022-09-13T00:51:58;16.91;51.23
74494;SHT31;62978;51.094;-115.362;2022-09-13T00:54:35;16.89;51.11
74494;SHT31;62978;51.094;-115.362;2022-09-13T00:57:10;16.84;50.95
74494;SHT31;62978;51.094;-115.362;2022-09-13T00:59:44;16.83;50.81
74494;SHT31;62978;51.094;-115.362;2022-09-13T01:05:42;16.80;52.12
74494;SHT31;62978;51.094;-115.362;2022-09-13T01:08:15;16.75;51.99
74494;SHT31;62978;51.094;-115.362;2022-09-13T01:10:50;16.67;52.15
74494;SHT31;62978;51.094;-115.362;2022-09-13T01:13:22;16.54;52.85
74494;SHT31;62978;51.094;-115.362;2022-09-13T01:15:53;16.41;52.72
74494;SHT31;62978;51.094;-115.362;2022-09-13T01:18:21;16.34;52.67
74494;SHT31;62978;51.094;-115.362;2022-09-13T01:45:20;15.57;55.57
74494;SHT31;62978;51.094;-115.362;2022-09-13T01:54:03;15.21;57.74
74494;SHT31;62978;51.094;-115.362;2022-09-13T01:57:01;15.10;57.50
74494;SHT31;62978;51.094;-115.362;2022-09-13T02:05:58;14.89;58.73
74494;SHT31;62978;51.094;-115.362;2022-09-13T02:11:26;14.82;58.24
74494;SHT31;62978;51.094;-115.362;2022-09-13T02:14:00;14.77;59.26
74494;SHT31;62978;51.094;-115.362;2022-09-13T02:16:35;14.69;59.69
74494;SHT31;62978;51.094;-115.362;2022-09-13T02:22:27;14.53;60.20
74494;SHT31;62978;51.094;-115.362;2022-09-13T02:25:05;14.50;60.58
74494;SHT31;62978;51.094;-115.362;2022-09-13T02:27:39;14.45;60.56
74494;SHT31;62978;51.094;-115.362;2022-09-13T02:30:14;14.43;60.69
74494;SHT31;62978;51.094;-115.362;2022-09-13T02:35:34;14.39;61.18
74494;SHT31;62978;51.094;-115.362;2022-09-13T02:38:22;14.37;61.36
74494;SHT31;62978;51.094;-115.362;2022-09-13T03:01:01;14.09;62.28
74494;SHT31;62978;51.094;-115.362;2022-09-13T03:03:29;14.05;62.55
74494;SHT31;62978;51.094;-115.362;2022-09-13T03:05:56;14.02;62.93
74494;SHT31;62978;51.094;-115.362;2022-09-13T03:08:24;14.02;62.30
74494;SHT31;62978;51.094;-115.362;2022-09-13T03:14:27;14.04;62.53
74494;SHT31;62978;51.094;-115.362;2022-09-13T03:22:59;13.96;62.98
74494;SHT31;62978;51.094;-115.362;2022-09-13T03:25:53;13.88;63.38
74494;SHT31;62978;51.094;-115.362;2022-09-13T03:28:54;13.78;63.71
74494;SHT31;62978;51.094;-115.362;2022-09-13T03:32:01;13.65;64.36
74494;SHT31;62978;51.094;-115.362;2022-09-13T03:35:38;13.50;64.65
74494;SHT31;62978;51.094;-115.362;2022-09-13T03:37:59;13.41;64.70
74494;SHT31;62978;51.094;-115.362;2022-09-13T03:45:38;13.44;64.81
74494;SHT31;62978;51.094;-115.362;2022-09-13T03:48:15;13.43;64.88
74494;SHT31;62978;51.094;-115.362;2022-09-13T03:50:47;13.40;64.94
74494;SHT31;62978;51.094;-115.362;2022-09-13T03:53:26;13.37;65.12
74494;SHT31;62978;51.094;-115.362;2022-09-13T03:55:57;13.32;65.11
74494;SHT31;62978;51.094;-115.362;2022-09-13T03:58:24;13.28;65.18
74494;SHT31;62978;51.094;-115.362;2022-09-13T04:00:53;13.25;65.18
74494;SHT31;62978;51.094;-115.362;2022-09-13T04:03:21;13.22;65.36
74494;SHT31;62978;51.094;-115.362;2022-09-13T04:05:49;13.19;66.16
74494;SHT31;62978;51.094;-115.362;2022-09-13T04:08:16;13.14;65.99
74494;SHT31;62978;51.094;-115.362;2022-09-13T04:10:44;13.07;66.42
74494;SHT31;62978;51.094;-115.362;2022-09-13T04:13:19;12.99;66.27
74494;SHT31;62978;51.094;-115.362;2022-09-13T04:15:47;12.97;66.10
74494;SHT31;62978;51.094;-115.362;2022-09-13T04:18:15;12.99;66.23
74494;SHT31;62978;51.094;-115.362;2022-09-13T04:20:43;12.95;66.34
74494;SHT31;62978;51.094;-115.362;2022-09-13T04:23:23;12.90;66.51
74494;SHT31;62978;51.094;-115.362;2022-09-13T04:25:52;12.88;66.19
74494;SHT31;62978;51.094;-115.362;2022-09-13T04:28:21;12.88;66.34
74494;SHT31;62978;51.094;-115.362;2022-09-13T04:30:48;12.88;66.25
74494;SHT31;62978;51.094;-115.362;2022-09-13T04:33:16;12.89;66.03
74494;SHT31;62978;51.094;-115.362;2022-09-13T04:35:43;12.90;65.61
74494;SHT31;62978;51.094;-115.362;2022-09-13T04:38:10;12.91;65.29
74494;SHT31;62978;51.094;-115.362;2022-09-13T04:40:38;12.93;65.42
74494;SHT31;62978;51.094;-115.362;2022-09-13T04:43:05;12.93;65.49
74494;SHT31;62978;51.094;-115.362;2022-09-13T04:45:32;12.93;65.46
74494;SHT31;62978;51.094;-115.362;2022-09-13T04:48:02;12.93;65.64
74494;SHT31;62978;51.094;-115.362;2022-09-13T04:50:29;12.92;65.50
74494;SHT31;62978;51.094;-115.362;2022-09-13T04:52:56;12.94;65.17
74494;SHT31;62978;51.094;-115.362;2022-09-13T04:55:24;12.95;65.27
74494;SHT31;62978;51.094;-115.362;2022-09-13T04:57:52;12.95;64.97
74494;SHT31;62978;51.094;-115.362;2022-09-13T05:00:21;12.98;64.90
74494;SHT31;62978;51.094;-115.362;2022-09-13T05:02:53;12.98;65.05
74494;SHT31;62978;51.094;-115.362;2022-09-13T05:05:22;12.96;65.33
74494;SHT31;62978;51.094;-115.362;2022-09-13T05:07:50;12.89;65.95
74494;SHT31;62978;51.094;-115.362;2022-09-13T05:10:18;12.82;66.14
74494;SHT31;62978;51.094;-115.362;2022-09-13T05:12:45;12.81;66.07
74494;SHT31;62978;51.094;-115.362;2022-09-13T05:15:12;12.81;65.67
74494;SHT31;62978;51.094;-115.362;2022-09-13T05:17:40;12.82;65.72
74494;SHT31;62978;51.094;-115.362;2022-09-13T05:20:07;12.81;65.78
74494;SHT31;62978;51.094;-115.362;2022-09-13T05:22:35;12.82;66.20
74494;SHT31;62978;51.094;-115.362;2022-09-13T05:25:02;12.85;66.38
74494;SHT31;62978;51.094;-115.362;2022-09-13T05:27:30;12.88;66.10
74494;SHT31;62978;51.094;-115.362;2022-09-13T05:29:57;12.89;65.61
74494;SHT31;62978;51.094;-115.362;2022-09-13T05:32:25;12.92;65.24
74494;SHT31;62978;51.094;-115.362;2022-09-13T05:34:52;12.91;65.05
74494;SHT31;62978;51.094;-115.362;2022-09-13T05:37:19;12.91;64.81
74494;SHT31;62978;51.094;-115.362;2022-09-13T05:39:47;12.91;64.88
74494;SHT31;62978;51.094;-115.362;2022-09-13T05:42:14;12.85;65.20
74494;SHT31;62978;51.094;-115.362;2022-09-13T05:44:41;12.81;65.14
74494;SHT31;62978;51.094;-115.362;2022-09-13T05:47:08;12.77;65.26
74494;SHT31;62978;51.094;-115.362;2022-09-13T05:49:38;12.71;65.71
74494;SHT31;62978;51.094;-115.362;2022-09-13T05:52:05;12.67;65.87
74494;SHT31;62978;51.094;-115.362;2022-09-13T05:54:33;12.64;65.96
74494;SHT31;62978;51.094;-115.362;2022-09-13T05:57:02;12.61;65.77
74494;SHT31;62978;51.094;-115.362;2022-09-13T05:59:29;12.59;66.25
74494;SHT31;62978;51.094;-115.362;2022-09-13T06:01:57;12.56;66.30
74494;SHT31;62978;51.094;-115.362;2022-09-13T06:04:25;12.60;65.95
74494;SHT31;62978;51.094;-115.362;2022-09-13T06:06:52;12.65;66.00
74494;SHT31;62978;51.094;-115.362;2022-09-13T06:09:19;12.70;66.10
74494;SHT31;62978;51.094;-115.362;2022-09-13T06:11:46;12.72;65.86
74494;SHT31;62978;51.094;-115.362;2022-09-13T06:14:13;12.72;65.92
74494;SHT31;62978;51.094;-115.362;2022-09-13T06:16:41;12.68;66.26
74494;SHT31;62978;51.094;-115.362;2022-09-13T06:19:08;12.62;66.24
74494;SHT31;62978;51.094;-115.362;2022-09-13T06:21:35;12.62;65.55
74494;SHT31;62978;51.094;-115.362;2022-09-13T06:24:03;12.66;64.45
74494;SHT31;62978;51.094;-115.362;2022-09-13T06:26:30;12.75;63.50
74494;SHT31;62978;51.094;-115.362;2022-09-13T06:29:03;12.82;63.07
74494;SHT31;62978;51.094;-115.362;2022-09-13T06:31:30;12.87;63.21
74494;SHT31;62978;51.094;-115.362;2022-09-13T06:33:59;12.87;63.03
74494;SHT31;62978;51.094;-115.362;2022-09-13T06:36:27;12.89;62.71
74494;SHT31;62978;51.094;-115.362;2022-09-13T06:38:55;12.90;63.09
74494;SHT31;62978;51.094;-115.362;2022-09-13T06:41:25;12.90;63.48
74494;SHT31;62978;51.094;-115.362;2022-09-13T06:43:56;12.93;63.91
74494;SHT31;62978;51.094;-115.362;2022-09-13T06:46:26;12.96;63.65
74494;SHT31;62978;51.094;-115.362;2022-09-13T06:49:00;12.98;64.33
74494;SHT31;62978;51.094;-115.362;2022-09-13T06:51:31;12.98;65.40
74494;SHT31;62978;51.094;-115.362;2022-09-13T06:53:59;12.94;65.86
74494;SHT31;62978;51.094;-115.362;2022-09-13T06:56:29;12.86;66.71
74494;SHT31;62978;51.094;-115.362;2022-09-13T06:59:03;12.76;67.45
74494;SHT31;62978;51.094;-115.362;2022-09-13T07:01:35;12.69;67.86
74494;SHT31;62978;51.094;-115.362;2022-09-13T07:04:10;12.66;68.57
74494;SHT31;62978;51.094;-115.362;2022-09-13T07:06:47;12.63;69.25
74494;SHT31;62978;51.094;-115.362;2022-09-13T07:09:19;12.61;70.21
74494;SHT31;62978;51.094;-115.362;2022-09-13T07:11:48;12.54;71.22
74494;SHT31;62978;51.094;-115.362;2022-09-13T07:14:18;12.47;71.93
74494;SHT31;62978;51.094;-115.362;2022-09-13T07:16:48;12.39;72.59
74494;SHT31;62978;51.094;-115.362;2022-09-13T07:19:17;12.32;73.40
74494;SHT31;62978;51.094;-115.362;2022-09-13T07:21:54;12.29;73.55
74494;SHT31;62978;51.094;-115.362;2022-09-13T07:24:23;12.26;73.65
74494;SHT31;62978;51.094;-115.362;2022-09-13T07:26:51;12.22;74.05
74494;SHT31;62978;51.094;-115.362;2022-09-13T07:29:19;12.21;74.45
74494;SHT31;62978;51.094;-115.362;2022-09-13T07:31:51;12.21;74.57
74494;SHT31;62978;51.094;-115.362;2022-09-13T07:34:21;12.20;74.79
74494;SHT31;62978;51.094;-115.362;2022-09-13T07:36:51;12.23;74.30
74494;SHT31;62978;51.094;-115.362;2022-09-13T07:39:19;12.24;74.37
74494;SHT31;62978;51.094;-115.362;2022-09-13T07:41:46;12.25;74.35
74494;SHT31;62978;51.094;-115.362;2022-09-13T07:44:13;12.22;74.78
74494;SHT31;62978;51.094;-115.362;2022-09-13T07:46:40;12.19;75.11
74494;SHT31;62978;51.094;-115.362;2022-09-13T07:49:12;12.14;75.60
74494;SHT31;62978;51.094;-115.362;2022-09-13T07:51:44;12.09;76.02
74494;SHT31;62978;51.094;-115.362;2022-09-13T07:54:12;12.03;75.90
74494;SHT31;62978;51.094;-115.362;2022-09-13T07:56:43;12.01;75.72
74494;SHT31;62978;51.094;-115.362;2022-09-13T07:59:11;12.02;75.82
74494;SHT31;62978;51.094;-115.362;2022-09-13T08:01:45;12.04;76.12
74494;SHT31;62978;51.094;-115.362;2022-09-13T08:04:17;12.05;76.15
74494;SHT31;62978;51.094;-115.362;2022-09-13T08:06:49;12.06;76.70
74494;SHT31;62978;51.094;-115.362;2022-09-13T08:09:17;12.02;76.77
74494;SHT31;62978;51.094;-115.362;2022-09-13T08:11:46;12.01;76.79
74494;SHT31;62978;51.094;-115.362;2022-09-13T08:14:17;12.04;76.52
74494;SHT31;62978;51.094;-115.362;2022-09-13T08:16:47;11.99;77.04
74494;SHT31;62978;51.094;-115.362;2022-09-13T08:19:16;11.94;77.68
74494;SHT31;62978;51.094;-115.362;2022-09-13T08:21:44;11.92;77.96
74494;SHT31;62978;51.094;-115.362;2022-09-13T08:24:19;11.96;77.87
74494;SHT31;62978;51.094;-115.362;2022-09-13T08:26:47;11.98;77.96
74494;SHT31;62978;51.094;-115.362;2022-09-13T08:29:16;12.01;77.49
74494;SHT31;62978;51.094;-115.362;2022-09-13T08:31:43;12.04;77.13
74494;SHT31;62978;51.094;-115.362;2022-09-13T08:34:11;12.06;77.16
74494;SHT31;62978;51.094;-115.362;2022-09-13T08:36:41;12.07;77.16
74494;SHT31;62978;51.094;-115.362;2022-09-13T08:39:09;12.10;77.34
74494;SHT31;62978;51.094;-115.362;2022-09-13T08:41:46;12.13;77.23
74494;SHT31;62978;51.094;-115.362;2022-09-13T08:56:02;12.15;77.69
74494;SHT31;62978;51.094;-115.362;2022-09-13T09:01:42;12.18;77.76
74494;SHT31;62978;51.094;-115.362;2022-09-13T09:04:19;12.13;78.22
74494;SHT31;62978;51.094;-115.362;2022-09-13T09:07:19;12.06;78.46
74494;SHT31;62978;51.094;-115.362;2022-09-13T09:12:44;12.07;78.54
74494;SHT31;62978;51.094;-115.362;2022-09-13T09:15:24;12.07;78.57
74494;SHT31;62978;51.094;-115.362;2022-09-13T09:20:45;12.07;78.68
74494;SHT31;62978;51.094;-115.362;2022-09-13T09:26:04;12.03;79.54
74494;SHT31;62978;51.094;-115.362;2022-09-13T09:41:02;11.82;78.88
74494;SHT31;62978;51.094;-115.362;2022-09-13T09:43:42;11.87;78.84
74494;SHT31;62978;51.094;-115.362;2022-09-13T09:46:22;11.87;79.13
74494;SHT31;62978;51.094;-115.362;2022-09-13T09:49:00;11.84;79.27
74494;SHT31;62978;51.094;-115.362;2022-09-13T09:52:06;11.81;79.38
74494;SHT31;62978;51.094;-115.362;2022-09-13T09:54:37;11.81;79.50
74494;SHT31;62978;51.094;-115.362;2022-09-13T09:57:06;11.80;79.84
74494;SHT31;62978;51.094;-115.362;2022-09-13T09:59:33;11.74;80.00
74494;SHT31;62978;51.094;-115.362;2022-09-13T10:02:09;11.68;80.73
74494;SHT31;62978;51.094;-115.362;2022-09-13T10:04:53;11.63;80.55
74494;SHT31;62978;51.094;-115.362;2022-09-13T10:12:51;11.67;80.21
74494;SHT31;62978;51.094;-115.362;2022-09-13T10:15:25;11.76;79.95
74494;SHT31;62978;51.094;-115.362;2022-09-13T10:20:42;11.85;79.71
74494;SHT31;62978;51.094;-115.362;2022-09-13T10:23:43;11.87;79.70
74494;SHT31;62978;51.094;-115.362;2022-09-13T10:26:16;11.88;79.79
74494;SHT31;62978;51.094;-115.362;2022-09-13T10:28:51;11.87;80.03
74494;SHT31;62978;51.094;-115.362;2022-09-13T10:31:43;11.82;80.52
74494;SHT31;62978;51.094;-115.362;2022-09-13T10:34:25;11.79;80.08
74494;SHT31;62978;51.094;-115.362;2022-09-13T10:42:38;11.62;80.16
74494;SHT31;62978;51.094;-115.362;2022-09-13T10:45:05;11.59;80.12
74494;SHT31;62978;51.094;-115.362;2022-09-13T10:47:47;11.54;80.12
74494;SHT31;62978;51.094;-115.362;2022-09-13T10:52:59;11.39;80.42
74494;SHT31;62978;51.094;-115.362;2022-09-13T10:55:49;11.34;80.37
74494;SHT31;62978;51.094;-115.362;2022-09-13T10:58:20;11.25;80.68
74494;SHT31;62978;51.094;-115.362;2022-09-13T11:01:04;11.23;80.67
74494;SHT31;62978;51.094;-115.362;2022-09-13T11:10:13;11.13;81.12
74494;SHT31;62978;51.094;-115.362;2022-09-13T11:13:06;11.11;80.82
74494;SHT31;62978;51.094;-115.362;2022-09-13T11:15:57;11.10;80.80
74494;SHT31;62978;51.094;-115.362;2022-09-13T11:27:54;10.88;82.18
74494;SHT31;62978;51.094;-115.362;2022-09-13T11:31:02;10.91;81.88
74494;SHT31;62978;51.094;-115.362;2022-09-13T11:39:30;10.93;82.12
74494;SHT31;62978;51.094;-115.362;2022-09-13T11:43:01;10.93;81.83
74494;SHT31;62978;51.094;-115.362;2022-09-13T11:49:53;10.84;82.00
74494;SHT31;62978;51.094;-115.362;2022-09-13T11:58:15;10.88;81.64
74494;SHT31;62978;51.094;-115.362;2022-09-13T12:00:58;10.86;81.51
74494;SHT31;62978;51.094;-115.362;2022-09-13T12:06:42;11.01;81.36
74494;SHT31;62978;51.094;-115.362;2022-09-13T12:09:21;11.10;81.28
74494;SHT31;62978;51.094;-115.362;2022-09-13T12:12:12;11.13;81.30
74494;SHT31;62978;51.094;-115.362;2022-09-13T12:14:42;11.14;81.57
74494;SHT31;62978;51.094;-115.362;2022-09-13T12:17:28;11.16;81.95
74494;SHT31;62978;51.094;-115.362;2022-09-13T12:20:10;11.15;81.92
74494;SHT31;62978;51.094;-115.362;2022-09-13T12:22:50;11.15;81.86
74494;SHT31;62978;51.094;-115.362;2022-09-13T12:25:22;11.15;81.82
74494;SHT31;62978;51.094;-115.362;2022-09-13T12:29:22;11.18;81.88
74494;SHT31;62978;51.094;-115.362;2022-09-13T12:31:39;11.21;81.80
74494;SHT31;62978;51.094;-115.362;2022-09-13T12:34:08;11.24;81.63
74494;SHT31;62978;51.094;-115.362;2022-09-13T12:40:04;11.32;82.02
74494;SHT31;62978;51.094;-115.362;2022-09-13T12:43:51;11.28;82.08
74494;SHT31;62978;51.094;-115.362;2022-09-13T12:52:06;11.30;81.90
74494;SHT31;62978;51.094;-115.362;2022-09-13T13:04:00;11.23;81.86
74494;SHT31;62978;51.094;-115.362;2022-09-13T13:09:44;11.28;81.51
74494;SHT31;62978;51.094;-115.362;2022-09-13T13:12:35;11.28;81.53
74494;SHT31;62978;51.094;-115.362;2022-09-13T13:17:49;11.14;82.19
74494;SHT31;62978;51.094;-115.362;2022-09-13T13:23:21;11.04;82.37
74494;SHT31;62978;51.094;-115.362;2022-09-13T13:29:27;10.97;82.25
74494;SHT31;62978;51.094;-115.362;2022-09-13T13:34:42;10.97;82.72
74494;SHT31;62978;51.094;-115.362;2022-09-13T13:39:44;10.81;82.89
74494;SHT31;62978;51.094;-115.362;2022-09-13T13:42:27;10.74;82.69
74494;SHT31;62978;51.094;-115.362;2022-09-13T13:45:04;10.67;82.94
74494;SHT31;62978;51.094;-115.362;2022-09-13T13:48:06;10.67;82.68
74494;SHT31;62978;51.094;-115.362;2022-09-13T13:51:14;10.68;82.52
74494;SHT31;62978;51.094;-115.362;2022-09-13T13:53:47;10.69;82.25
74494;SHT31;62978;51.094;-115.362;2022-09-13T13:59:27;10.74;82.33
74494;SHT31;62978;51.094;-115.362;2022-09-13T14:01:58;10.74;82.29
74494;SHT31;62978;51.094;-115.362;2022-09-13T14:04:33;10.77;82.33
74494;SHT31;62978;51.094;-115.362;2022-09-13T14:13:37;10.89;82.23
74494;SHT31;62978;51.094;-115.362;2022-09-13T14:24:52;10.90;82.86
74494;SHT31;62978;51.094;-115.362;2022-09-13T14:27:38;11.00;82.56
74494;SHT31;62978;51.094;-115.362;2022-09-13T14:32:52;11.15;82.82
74494;SHT31;62978;51.094;-115.362;2022-09-13T14:35:37;11.22;82.71
74494;SHT31;62978;51.094;-115.362;2022-09-13T14:38:17;11.26;82.99
74494;SHT31;62978;51.094;-115.362;2022-09-13T14:54:05;12.75;80.79
74494;SHT31;62978;51.094;-115.362;2022-09-13T14:56:45;12.94;80.15
74494;SHT31;62978;51.094;-115.362;2022-09-13T14:59:24;13.11;79.76
74494;SHT31;62978;51.094;-115.362;2022-09-13T15:04:53;13.39;78.99
74494;SHT31;62978;51.094;-115.362;2022-09-13T15:07:35;13.48;78.56
74494;SHT31;62978;51.094;-115.362;2022-09-13T15:18:20;13.69;76.86
74494;SHT31;62978;51.094;-115.362;2022-09-13T15:20:57;13.71;77.04
74494;SHT31;62978;51.094;-115.362;2022-09-13T15:28:29;14.08;75.95
74494;SHT31;62978;51.094;-115.362;2022-09-13T15:36:43;14.48;73.91
74494;SHT31;62978;51.094;-115.362;2022-09-13T15:39:27;14.43;74.31
74494;SHT31;62978;51.094;-115.362;2022-09-13T15:41:55;14.54;74.35
74494;SHT31;62978;51.094;-115.362;2022-09-13T15:44:28;14.61;73.96
74494;SHT31;62978;51.094;-115.362;2022-09-13T15:47:00;14.66;73.15
74494;SHT31;62978;51.094;-115.362;2022-09-13T15:49:32;14.69;73.37
74494;SHT31;62978;51.094;-115.362;2022-09-13T15:52:02;14.78;73.27
74494;SHT31;62978;51.094;-115.362;2022-09-13T15:54:34;14.84;72.81
74494;SHT31;62978;51.094;-115.362;2022-09-13T15:57:13;14.86;72.62
74494;SHT31;62978;51.094;-115.362;2022-09-13T15:59:47;14.87;72.45
74494;SHT31;62978;51.094;-115.362;2022-09-13T16:04:52;14.60;72.25
74494;SHT31;62978;51.094;-115.362;2022-09-13T16:07:21;14.66;72.53
74494;SHT31;62978;51.094;-115.362;2022-09-13T16:09:49;14.71;72.27
74494;SHT31;62978;51.094;-115.362;2022-09-13T16:12:18;14.75;72.25
74494;SHT31;62978;51.094;-115.362;2022-09-13T16:14:48;14.79;72.04
74494;SHT31;62978;51.094;-115.362;2022-09-13T16:17:19;14.86;71.88
74494;SHT31;62978;51.094;-115.362;2022-09-13T16:19:49;14.86;71.63
74494;SHT31;62978;51.094;-115.362;2022-09-13T16:22:17;14.84;71.50
74494;SHT31;62978;51.094;-115.362;2022-09-13T16:24:45;14.85;71.41
74494;SHT31;62978;51.094;-115.362;2022-09-13T16:27:13;14.81;71.44
74494;SHT31;62978;51.094;-115.362;2022-09-13T16:29:42;14.86;71.56
74494;SHT31;62978;51.094;-115.362;2022-09-13T16:32:10;14.94;71.48
74494;SHT31;62978;51.094;-115.362;2022-09-13T16:34:37;14.97;71.21
74494;SHT31;62978;51.094;-115.362;2022-09-13T16:37:05;14.96;71.31
74494;SHT31;62978;51.094;-115.362;2022-09-13T16:39:32;14.98;71.18
74494;SHT31;62978;51.094;-115.362;2022-09-13T16:41:59;15.03;71.21
74494;SHT31;62978;51.094;-115.362;2022-09-13T16:44:26;15.10;71.09
74494;SHT31;62978;51.094;-115.362;2022-09-13T16:46:54;15.20;70.92
74494;SHT31;62978;51.094;-115.362;2022-09-13T16:49:21;15.23;70.71
74494;SHT31;62978;51.094;-115.362;2022-09-13T16:51:49;15.30;70.67
74494;SHT31;62978;51.094;-115.362;2022-09-13T16:54:17;15.29;70.41
74494;SHT31;62978;51.094;-115.362;2022-09-13T16:56:44;15.38;70.40
74494;SHT31;62978;51.094;-115.362;2022-09-13T16:59:11;15.56;70.04
74494;SHT31;62978;51.094;-115.362;2022-09-13T17:01:38;15.69;69.71
74494;SHT31;62978;51.094;-115.362;2022-09-13T17:04:06;15.84;69.35
74494;SHT31;62978;51.094;-115.362;2022-09-13T17:06:35;15.90;68.62
74494;SHT31;62978;51.094;-115.362;2022-09-13T17:09:03;16.03;68.20
74494;SHT31;62978;51.094;-115.362;2022-09-13T17:11:33;16.19;67.35
74494;SHT31;62978;51.094;-115.362;2022-09-13T17:14:06;16.35;67.26
74494;SHT31;62978;51.094;-115.362;2022-09-13T17:16:38;16.50;66.66
74494;SHT31;62978;51.094;-115.362;2022-09-13T17:19:13;16.66;66.45
74494;SHT31;62978;51.094;-115.362;2022-09-13T17:21:50;16.84;66.01
74494;SHT31;62978;51.094;-115.362;2022-09-13T17:24:24;16.97;65.16
74494;SHT31;62978;51.094;-115.362;2022-09-13T17:26:55;16.90;64.27
74494;SHT31;62978;51.094;-115.362;2022-09-13T17:29:23;16.92;64.78
74494;SHT31;62978;51.094;-115.362;2022-09-13T17:31:56;17.11;64.75
74494;SHT31;62978;51.094;-115.362;2022-09-13T17:34:25;17.27;63.79
74494;SHT31;62978;51.094;-115.362;2022-09-13T17:36:53;17.26;62.81
74494;SHT31;62978;51.094;-115.362;2022-09-13T17:39:21;17.29;63.34
74494;SHT31;62978;51.094;-115.362;2022-09-13T17:41:48;17.44;63.20
74494;SHT31;62978;51.094;-115.362;2022-09-13T17:44:16;17.59;62.48
74494;SHT31;62978;51.094;-115.362;2022-09-13T17:46:43;17.71;61.51
74494;SHT31;62978;51.094;-115.362;2022-09-13T17:49:11;17.82;61.20
74494;SHT31;62978;51.094;-115.362;2022-09-13T17:51:38;17.95;61.04
74494;SHT31;62978;51.094;-115.362;2022-09-13T17:54:06;18.04;60.09
74494;SHT31;62978;51.094;-115.362;2022-09-13T17:56:36;17.98;59.32
74494;SHT31;62978;51.094;-115.362;2022-09-13T17:59:16;17.79;58.55
74494;SHT31;62978;51.094;-115.362;2022-09-13T18:01:46;17.76;59.49
74494;SHT31;62978;51.094;-115.362;2022-09-13T18:04:19;17.87;59.51
74494;SHT31;62978;51.094;-115.362;2022-09-13T18:06:51;17.99;58.93
74494;SHT31;62978;51.094;-115.362;2022-09-13T18:09:19;18.02;58.63
74494;SHT31;62978;51.094;-115.362;2022-09-13T18:11:46;17.95;58.74
74494;SHT31;62978;51.094;-115.362;2022-09-13T18:14:15;17.84;58.90
74494;SHT31;62978;51.094;-115.362;2022-09-13T18:16:48;17.77;59.06
74494;SHT31;62978;51.094;-115.362;2022-09-13T18:19:20;17.73;59.06
74494;SHT31;62978;51.094;-115.362;2022-09-13T18:21:48;17.70;58.87
74494;SHT31;62978;51.094;-115.362;2022-09-13T18:24:16;17.68;59.24
74494;SHT31;62978;51.094;-115.362;2022-09-13T18:26:43;17.73;59.27
74494;SHT31;62978;51.094;-115.362;2022-09-13T18:29:12;17.78;59.45
74494;SHT31;62978;51.094;-115.362;2022-09-13T18:31:40;17.89;59.41
74494;SHT31;62978;51.094;-115.362;2022-09-13T18:34:12;17.98;59.21
74494;SHT31;62978;51.094;-115.362;2022-09-13T18:36:39;18.01;58.35
74494;SHT31;62978;51.094;-115.362;2022-09-13T18:39:10;17.97;57.00
74494;SHT31;62978;51.094;-115.362;2022-09-13T18:41:46;17.83;56.54
74494;SHT31;62978;51.094;-115.362;2022-09-13T18:44:15;17.73;56.91
74494;SHT31;62978;51.094;-115.362;2022-09-13T18:46:43;17.69;57.10
74494;SHT31;62978;51.094;-115.362;2022-09-13T18:49:11;17.71;56.83
74494;SHT31;62978;51.094;-115.362;2022-09-13T18:51:42;17.74;57.33
74494;SHT31;62978;51.094;-115.362;2022-09-13T18:54:14;17.82;57.52
74494;SHT31;62978;51.094;-115.362;2022-09-13T18:56:43;17.90;57.76
74494;SHT31;62978;51.094;-115.362;2022-09-13T18:59:12;17.99;57.83
74494;SHT31;62978;51.094;-115.362;2022-09-13T19:01:40;18.01;57.10
74494;SHT31;62978;51.094;-115.362;2022-09-13T19:04:14;18.00;57.46
74494;SHT31;62978;51.094;-115.362;2022-09-13T19:06:44;17.97;57.59
74494;SHT31;62978;51.094;-115.362;2022-09-13T19:09:15;17.97;58.02
74494;SHT31;62978;51.094;-115.362;2022-09-13T19:11:45;17.98;58.21
74494;SHT31;62978;51.094;-115.362;2022-09-13T19:14:17;18.01;58.28
74494;SHT31;62978;51.094;-115.362;2022-09-13T19:16:51;18.05;58.48
74494;SHT31;62978;51.094;-115.362;2022-09-13T19:19:21;18.11;58.33
74494;SHT31;62978;51.094;-115.362;2022-09-13T19:21:49;18.23;57.91
74494;SHT31;62978;51.094;-115.362;2022-09-13T19:24:16;18.29;57.87
74494;SHT31;62978;51.094;-115.362;2022-09-13T19:26:44;18.32;58.33
74494;SHT31;62978;51.094;-115.362;2022-09-13T19:29:16;18.41;58.62
74494;SHT31;62978;51.094;-115.362;2022-09-13T19:31:46;18.49;58.73
74494;SHT31;62978;51.094;-115.362;2022-09-13T19:34:15;18.55;58.37
74494;SHT31;62978;51.094;-115.362;2022-09-13T19:36:45;18.64;57.56
74494;SHT31;62978;51.094;-115.362;2022-09-13T19:39:14;18.73;57.33
74494;SHT31;62978;51.094;-115.362;2022-09-13T19:41:42;18.84;56.97
74494;SHT31;62978;51.094;-115.362;2022-09-13T19:44:10;18.99;57.08
74494;SHT31;62978;51.094;-115.362;2022-09-13T19:46:40;19.14;57.02
74494;SHT31;62978;51.094;-115.362;2022-09-13T19:49:12;19.25;56.71
74494;SHT31;62978;51.094;-115.362;2022-09-13T19:51:42;19.31;55.87
74494;SHT31;62978;51.094;-115.362;2022-09-13T19:54:11;19.34;55.12
74494;SHT31;62978;51.094;-115.362;2022-09-13T19:56:41;19.39;55.04